^^
Station Historical Data
Daily Summary for June 22, 2017 Units:  Metric    English   Both
« Previous Day
Next Day »
Daily Weekly Monthly Yearly Custom
  High: Low: Average:
Temperature: 19.9 °C 3.6 °C 7.4 °C
Dew Point: 2.9 °C -3.5 °C -1 °C
Humidity: 72% 24% 57%
Wind Speed: 24.1km/h 0km/h 2.4km/h
Wind Gust: 24.1km/h - -
Wind- - NW
Pressure: 1022.2 hPa 1018.8 hPa -
Precipitation: 0 mm    
Historical Graphs
 
 
Tabular Data for June 22, 2017
Time Temperature Dew Point Pressure Wind Wind Speed Wind Gust Humidity Rainfall Rate (Hourly) solar Conditions
00:03 8.8 °C -1.3 °C 1019.5 hPa Calm     49% 0 mm 0.0 W/m2
00:08 8.7 °C -1.4 °C 1019.5 hPa Calm     49% 0 mm 0.0 W/m2
00:13 8.5 °C -1.6 °C 1019.5 hPa Calm     49% 0 mm 0.0 W/m2
00:18 8.5 °C -1.1 °C 1019.5 hPa Calm     51% 0 mm 0.0 W/m2
00:24 8.5 °C -1.1 °C 1019.5 hPa Calm     51% 0 mm 0.0 W/m2
00:29 8.6 °C -1 °C 1019.5 hPa Calm     51% 0 mm 0.0 W/m2
00:34 8.6 °C -1 °C 1019.2 hPa Calm     51% 0 mm 0.0 W/m2
00:39 8.4 °C -1.2 °C 1019.2 hPa Calm     51% 0 mm 0.0 W/m2
00:44 8.3 °C -1.2 °C 1019.2 hPa Calm     51% 0 mm 0.0 W/m2
00:49 8.1 °C -1.2 °C 1019.2 hPa Calm     52% 0 mm 0.0 W/m2
00:55 8 °C -0.7 °C 1019.2 hPa Calm     54% 0 mm 0.0 W/m2
01:00 7.8 °C -0.9 °C 1019.2 hPa Calm     54% 0 mm 0.0 W/m2
01:05 7.8 °C -0.9 °C 1019.2 hPa Calm     54% 0 mm 0.0 W/m2
01:10 7.6 °C -1.1 °C 1019.2 hPa Calm     54% 0 mm 0.0 W/m2
01:21 7.2 °C -1.5 °C 1019.2 hPa Calm     54% 0 mm 0.0 W/m2
01:26 7.1 °C -0.8 °C 1019.2 hPa Calm     57% 0 mm 0.0 W/m2
01:31 6.9 °C -1 °C 1019.2 hPa Calm     57% 0 mm 0.0 W/m2
01:36 6.7 °C -1.5 °C 1019.2 hPa Calm     56% 0 mm 0.0 W/m2
01:41 6.5 °C -1.4 °C 1019.2 hPa Calm     57% 0 mm 0.0 W/m2
01:46 6.4 °C -1 °C 1019.2 hPa Calm     59% 0 mm 0.0 W/m2
01:56 6.2 °C -1.7 °C 1019.2 hPa Calm     57% 0 mm 0.0 W/m2
02:01 6 °C -1.9 °C 1018.8 hPa Calm     57% 0 mm 0.0 W/m2
02:06 5.9 °C -2 °C 1018.8 hPa Calm     57% 0 mm 0.0 W/m2
02:12 5.8 °C -2.1 °C 1018.8 hPa Calm     57% 0 mm 0.0 W/m2
02:17 5.6 °C -2.3 °C 1018.8 hPa Calm     57% 0 mm 0.0 W/m2
02:22 5.4 °C -2.4 °C 1018.8 hPa Calm     57% 0 mm 0.0 W/m2
02:27 5.2 °C -2.4 °C 1018.8 hPa Calm     58% 0 mm 0.0 W/m2
02:33 5.1 °C -2.7 °C 1018.8 hPa Calm     57% 0 mm 0.0 W/m2
02:38 5 °C -2.6 °C 1018.8 hPa Calm     58% 0 mm 0.0 W/m2
02:43 5.1 °C -2.7 °C 1018.8 hPa Calm     57% 0 mm 0.0 W/m2
02:53 4.9 °C -2.9 °C 1018.8 hPa Calm     57% 0 mm 0.0 W/m2
03:09 4.5 °C -3 °C 1018.8 hPa Calm     58% 0 mm 0.0 W/m2
03:14 4.4 °C -3.1 °C 1018.8 hPa Calm     58% 0 mm 0.0 W/m2
03:19 4.3 °C -3.2 °C 1018.8 hPa Calm     58% 0 mm 0.0 W/m2
03:24 4.2 °C -3.3 °C 1018.8 hPa Calm     58% 0 mm 0.0 W/m2
03:29 4 °C -3.3 °C 1019.2 hPa Calm     59% 0 mm 0.0 W/m2
03:34 3.8 °C -3.5 °C 1019.2 hPa Calm     59% 0 mm 0.0 W/m2
03:39 3.7 °C -3.3 °C 1019.2 hPa Calm     60% 0 mm 0.0 W/m2
03:45 3.6 °C -2.8 °C 1019.2 hPa Calm     63% 0 mm 0.0 W/m2
03:50 3.6 °C -2.4 °C 1019.2 hPa Calm     65% 0 mm 0.0 W/m2
04:00 4.1 °C -1.9 °C 1019.2 hPa Calm     65% 0 mm 0.0 W/m2
04:15 4.3 °C -2.3 °C 1019.5 hPa Calm     62% 0 mm 0.0 W/m2
04:20 4.2 °C -2 °C 1019.5 hPa Calm     64% 0 mm 0.0 W/m2
04:25 4.2 °C -2.2 °C 1019.5 hPa Calm     63% 0 mm 0.0 W/m2
04:30 4.2 °C -1.8 °C 1019.5 hPa Calm     65% 0 mm 0.0 W/m2
04:36 4.3 °C -1.7 °C 1019.5 hPa Calm     65% 0 mm 0.0 W/m2
04:42 4.2 °C -1.8 °C 1019.5 hPa Calm     65% 0 mm 0.0 W/m2
04:47 4.2 °C -1.8 °C 1019.5 hPa Calm     65% 0 mm 0.0 W/m2
04:57 4 °C -1.8 °C 1019.5 hPa Calm     66% 0 mm 0.0 W/m2
05:02 3.9 °C -2.1 °C 1019.5 hPa Calm     65% 0 mm 0.0 W/m2
05:07 3.9 °C -1.9 °C 1019.5 hPa Calm     66% 0 mm 0.0 W/m2
05:12 3.9 °C -1.9 °C 1019.9 hPa Calm     66% 0 mm 0.0 W/m2
05:17 3.9 °C -1.7 °C 1019.9 hPa Calm     67% 0 mm 0.0 W/m2
05:23 4.1 °C -1.5 °C 1019.9 hPa Calm     67% 0 mm 0.0 W/m2
05:28 4 °C -2 °C 1019.9 hPa Calm     65% 0 mm 0.0 W/m2
05:33 3.9 °C -1.9 °C 1019.9 hPa Calm     66% 0 mm 0.0 W/m2
05:38 3.9 °C -1.3 °C 1019.9 hPa Calm     69% 0 mm 0.0 W/m2
05:43 4.2 °C -0.8 °C 1020.2 hPa Calm     70% 0 mm 0.0 W/m2
05:48 4.5 °C -0.3 °C 1020.2 hPa Calm     71% 0 mm 0.0 W/m2
05:54 4.8 °C -0.6 °C 1020.2 hPa Calm     68% 0 mm 0.0 W/m2
05:59 4.9 °C -0.1 °C 1020.2 hPa Calm     70% 0 mm 0.0 W/m2
06:05 5.2 °C 0 °C 1020.2 hPa Calm     69% 0 mm 0.0 W/m2
06:10 5.3 °C -0.3 °C 1020.2 hPa Calm     67% 0 mm 0.0 W/m2
06:15 5 °C -0.8 °C 1020.5 hPa Calm     66% 0 mm 0.0 W/m2
06:20 4.7 °C -0.9 °C 1020.5 hPa Calm     67% 0 mm 0.0 W/m2
06:30 4.5 °C -0.7 °C 1020.5 hPa Calm     69% 0 mm 0.0 W/m2
06:35 4.3 °C -0.7 °C 1020.5 hPa Calm     70% 0 mm 0.0 W/m2
06:40 4.3 °C -0.3 °C 1020.5 hPa Calm     72% 0 mm 5.0 W/m2
06:46 4.3 °C -0.5 °C 1020.5 hPa Calm     71% 0 mm 7.0 W/m2
06:56 4.6 °C -0.2 °C 1020.5 hPa Calm     71% 0 mm 11.0 W/m2
07:01 4.4 °C -1.2 °C 1020.9 hPa Calm     67% 0 mm 12.0 W/m2
07:06 4.1 °C -1.1 °C 1020.9 hPa Calm     69% 0 mm 14.0 W/m2
07:11 4.1 °C -0.7 °C 1020.9 hPa Calm     71% 0 mm 16.0 W/m2
07:23 4.6 °C 0 °C 1020.9 hPa Calm     72% 0 mm 32.0 W/m2
07:26 4.9 °C 0.3 °C 1020.9 hPa Calm     72% 0 mm 32.0 W/m2
07:41 5.7 °C 0.3 °C 1021.2 hPa Calm     68% 0 mm 118.0 W/m2
07:53 7.2 °C 1.5 °C 1021.2 hPa Calm     67% 0 mm 181.0 W/m2
08:02 8.1 °C 1.7 °C 1021.2 hPa Calm     64% 0 mm 220.0 W/m2
08:12 8.6 °C 2 °C 1021.2 hPa Calm     63% 0 mm 239.0 W/m2
08:22 9.5 °C 2.1 °C 1021.2 hPa North 3.2 km/h 9.7 km/h 60% 0 mm 267.0 W/m2
08:32 10.3 °C 2.6 °C 1021.9 hPa North 9.7 km/h 12.9 km/h 59% 0 mm 309.0 W/m2
08:47 11.1 °C 2.9 °C 1021.9 hPa North 6.4 km/h 9.7 km/h 57% 0 mm 350.0 W/m2
09:17 12.2 °C 2.9 °C 1022.2 hPa Calm     53% 0 mm 422.0 W/m2
09:38 13 °C 2.8 °C 1022.2 hPa North 17.7 km/h 19.3 km/h 50% 0 mm 468.0 W/m2
09:58 13.6 °C 2.8 °C 1022.2 hPa NNW 13 km/h 19.3 km/h 48% 0 mm 494.0 W/m2
10:10 14.4 °C 2.6 °C 1021.9 hPa NNW 13 km/h 14.5 km/h 45% 0 mm 520.0 W/m2
10:19 14.6 °C 2.5 °C 1021.9 hPa NNW 9.7 km/h 14.5 km/h 44% 0 mm 536.0 W/m2
12:39 19.3 °C -1.8 °C 1020.9 hPa NW 19.5 km/h 24.1 km/h 24% 0 mm 582.0 W/m2
12:54 19.2 °C -1.3 °C 1020.5 hPa WNW 16.3 km/h 22.5 km/h 25% 0 mm 571.0 W/m2
13:07 19.3 °C -0.7 °C 1020.5 hPa WNW 11.1 km/h 19.3 km/h 26% 0 mm 554.0 W/m2
13:49 19.8 °C -0.8 °C 1019.9 hPa WNW 13 km/h 17.7 km/h 25% 0 mm 494.0 W/m2
14:00 19.9 °C -0.2 °C 1019.9 hPa West 22.7 km/h 22.7 km/h 26% 0 mm 466.0 W/m2
14:05 19.9 °C -0.2 °C 1020.2 hPa West 24.1 km/h 24.1 km/h 26% 0 mm 457.0 W/m2
14:12 19.8 °C -0.8 °C 1020.2 hPa West 17.7 km/h 22.5 km/h 25% 0 mm 446.0 W/m2
14:25 19.8 °C -0.8 °C 1020.2 hPa West 16.3 km/h 22.5 km/h 25% 0 mm 418.0 W/m2
14:50 19.7 °C 0.2 °C 1020.2 hPa West 20.9 km/h 20.9 km/h 27% 0 mm 367.0 W/m2
Canyon Roadhouse, Fishriver Canyon, Namibia
Compliments of Weather Underground - 2 mb